sensor_id;sensor_type;location;lat;lon;timestamp;P1;durP1;ratioP1;P2;durP2;ratioP2
49296;SDS011;35163;48.878;18.040;2023-03-31T00:00:46;29.83;;;19.38;;
49296;SDS011;35163;48.878;18.040;2023-03-31T00:03:16;34.25;;;20.42;;
49296;SDS011;35163;48.878;18.040;2023-03-31T00:05:47;30.80;;;19.20;;
49296;SDS011;35163;48.878;18.040;2023-03-31T00:08:14;36.67;;;19.08;;
49296;SDS011;35163;48.878;18.040;2023-03-31T00:10:43;32.95;;;20.92;;
49296;SDS011;35163;48.878;18.040;2023-03-31T00:13:11;37.00;;;19.77;;
49296;SDS011;35163;48.878;18.040;2023-03-31T00:15:38;32.35;;;20.00;;
49296;SDS011;35163;48.878;18.040;2023-03-31T00:18:05;32.60;;;21.27;;
49296;SDS011;35163;48.878;18.040;2023-03-31T00:20:32;34.83;;;19.88;;
49296;SDS011;35163;48.878;18.040;2023-03-31T00:23:03;34.55;;;20.00;;
49296;SDS011;35163;48.878;18.040;2023-03-31T00:25:39;37.55;;;20.30;;
49296;SDS011;35163;48.878;18.040;2023-03-31T00:28:09;30.98;;;19.08;;
49296;SDS011;35163;48.878;18.040;2023-03-31T00:30:36;32.53;;;20.58;;
49296;SDS011;35163;48.878;18.040;2023-03-31T00:33:03;32.40;;;20.50;;
49296;SDS011;35163;48.878;18.040;2023-03-31T00:35:30;32.13;;;19.70;;
49296;SDS011;35163;48.878;18.040;2023-03-31T00:37:57;31.23;;;19.73;;
49296;SDS011;35163;48.878;18.040;2023-03-31T00:40:25;30.10;;;19.92;;
49296;SDS011;35163;48.878;18.040;2023-03-31T00:42:51;40.78;;;20.33;;
49296;SDS011;35163;48.878;18.040;2023-03-31T00:45:24;36.05;;;19.67;;
49296;SDS011;35163;48.878;18.040;2023-03-31T00:47:54;35.70;;;21.13;;
49296;SDS011;35163;48.878;18.040;2023-03-31T00:50:31;32.50;;;20.13;;
49296;SDS011;35163;48.878;18.040;2023-03-31T00:53:08;29.83;;;19.50;;
49296;SDS011;35163;48.878;18.040;2023-03-31T00:55:48;31.65;;;20.50;;
49296;SDS011;35163;48.878;18.040;2023-03-31T00:58:18;32.90;;;19.73;;
49296;SDS011;35163;48.878;18.040;2023-03-31T01:00:47;36.47;;;20.33;;
49296;SDS011;35163;48.878;18.040;2023-03-31T01:03:18;39.05;;;21.08;;
49296;SDS011;35163;48.878;18.040;2023-03-31T01:05:52;37.22;;;20.77;;
49296;SDS011;35163;48.878;18.040;2023-03-31T01:08:22;33.35;;;20.95;;
49296;SDS011;35163;48.878;18.040;2023-03-31T01:10:55;32.42;;;20.05;;
49296;SDS011;35163;48.878;18.040;2023-03-31T01:13:28;35.38;;;20.48;;
49296;SDS011;35163;48.878;18.040;2023-03-31T01:15:57;33.80;;;21.00;;
49296;SDS011;35163;48.878;18.040;2023-03-31T01:18:23;32.00;;;20.58;;
49296;SDS011;35163;48.878;18.040;2023-03-31T01:26:27;35.65;;;20.40;;
49296;SDS011;35163;48.878;18.040;2023-03-31T01:29:10;36.95;;;21.85;;
49296;SDS011;35163;48.878;18.040;2023-03-31T01:32:03;37.28;;;20.80;;
49296;SDS011;35163;48.878;18.040;2023-03-31T01:35:01;32.15;;;20.75;;
49296;SDS011;35163;48.878;18.040;2023-03-31T01:48:30;37.15;;;22.55;;
49296;SDS011;35163;48.878;18.040;2023-03-31T01:51:00;36.97;;;21.80;;
49296;SDS011;35163;48.878;18.040;2023-03-31T01:56:19;34.72;;;21.35;;
49296;SDS011;35163;48.878;18.040;2023-03-31T01:58:55;37.90;;;21.92;;
49296;SDS011;35163;48.878;18.040;2023-03-31T02:04:12;34.03;;;21.48;;
49296;SDS011;35163;48.878;18.040;2023-03-31T02:06:50;34.67;;;21.98;;
49296;SDS011;35163;48.878;18.040;2023-03-31T02:09:25;37.05;;;21.65;;
49296;SDS011;35163;48.878;18.040;2023-03-31T02:11:55;40.65;;;23.83;;
49296;SDS011;35163;48.878;18.040;2023-03-31T02:14:24;35.92;;;22.35;;
49296;SDS011;35163;48.878;18.040;2023-03-31T02:16:56;38.60;;;22.35;;
49296;SDS011;35163;48.878;18.040;2023-03-31T02:19:25;37.20;;;23.17;;
49296;SDS011;35163;48.878;18.040;2023-03-31T02:21:56;39.70;;;22.50;;
49296;SDS011;35163;48.878;18.040;2023-03-31T02:24:25;40.17;;;22.80;;
49296;SDS011;35163;48.878;18.040;2023-03-31T02:29:53;40.78;;;23.08;;
49296;SDS011;35163;48.878;18.040;2023-03-31T02:32:22;39.15;;;23.98;;
49296;SDS011;35163;48.878;18.040;2023-03-31T02:34:55;36.35;;;22.45;;
49296;SDS011;35163;48.878;18.040;2023-03-31T02:37:21;36.10;;;22.33;;
49296;SDS011;35163;48.878;18.040;2023-03-31T02:39:49;42.28;;;24.27;;
49296;SDS011;35163;48.878;18.040;2023-03-31T02:42:19;41.63;;;22.13;;
49296;SDS011;35163;48.878;18.040;2023-03-31T02:44:47;36.33;;;24.13;;
49296;SDS011;35163;48.878;18.040;2023-03-31T02:47:14;39.50;;;24.13;;
49296;SDS011;35163;48.878;18.040;2023-03-31T02:49:45;40.00;;;23.15;;
49296;SDS011;35163;48.878;18.040;2023-03-31T02:55:43;40.55;;;25.80;;
49296;SDS011;35163;48.878;18.040;2023-03-31T02:59:02;40.75;;;25.23;;
49296;SDS011;35163;48.878;18.040;2023-03-31T03:04:17;41.38;;;24.75;;
49296;SDS011;35163;48.878;18.040;2023-03-31T03:09:29;44.85;;;25.33;;
49296;SDS011;35163;48.878;18.040;2023-03-31T03:15:20;39.58;;;22.77;;
49296;SDS011;35163;48.878;18.040;2023-03-31T03:17:52;39.00;;;23.15;;
49296;SDS011;35163;48.878;18.040;2023-03-31T03:20:21;39.40;;;24.88;;
49296;SDS011;35163;48.878;18.040;2023-03-31T03:22:50;41.22;;;24.17;;
49296;SDS011;35163;48.878;18.040;2023-03-31T03:25:17;38.70;;;23.05;;
49296;SDS011;35163;48.878;18.040;2023-03-31T03:27:45;43.60;;;23.33;;
49296;SDS011;35163;48.878;18.040;2023-03-31T03:30:12;40.63;;;23.95;;
49296;SDS011;35163;48.878;18.040;2023-03-31T03:32:42;38.97;;;23.83;;
49296;SDS011;35163;48.878;18.040;2023-03-31T03:35:09;66.93;;;23.65;;
49296;SDS011;35163;48.878;18.040;2023-03-31T03:37:36;37.33;;;23.00;;
49296;SDS011;35163;48.878;18.040;2023-03-31T03:40:07;33.85;;;21.25;;
49296;SDS011;35163;48.878;18.040;2023-03-31T03:42:34;37.78;;;23.00;;
49296;SDS011;35163;48.878;18.040;2023-03-31T03:45:01;39.22;;;23.48;;
49296;SDS011;35163;48.878;18.040;2023-03-31T03:47:28;36.95;;;23.00;;
49296;SDS011;35163;48.878;18.040;2023-03-31T03:49:58;35.47;;;22.92;;
49296;SDS011;35163;48.878;18.040;2023-03-31T03:52:24;56.92;;;25.05;;
49296;SDS011;35163;48.878;18.040;2023-03-31T03:54:51;53.85;;;25.40;;
49296;SDS011;35163;48.878;18.040;2023-03-31T03:57:18;37.95;;;22.88;;
49296;SDS011;35163;48.878;18.040;2023-03-31T03:59:45;35.92;;;22.25;;
49296;SDS011;35163;48.878;18.040;2023-03-31T04:02:14;51.30;;;23.55;;
49296;SDS011;35163;48.878;18.040;2023-03-31T04:04:43;36.10;;;20.90;;
49296;SDS011;35163;48.878;18.040;2023-03-31T04:07:13;31.67;;;21.38;;
49296;SDS011;35163;48.878;18.040;2023-03-31T04:09:40;46.03;;;22.13;;
49296;SDS011;35163;48.878;18.040;2023-03-31T04:12:07;35.63;;;21.33;;
49296;SDS011;35163;48.878;18.040;2023-03-31T04:14:33;35.60;;;20.52;;
49296;SDS011;35163;48.878;18.040;2023-03-31T04:17:04;33.70;;;21.02;;
49296;SDS011;35163;48.878;18.040;2023-03-31T04:19:30;33.67;;;20.60;;
49296;SDS011;35163;48.878;18.040;2023-03-31T04:21:57;36.13;;;22.02;;
49296;SDS011;35163;48.878;18.040;2023-03-31T04:24:28;39.13;;;21.80;;
49296;SDS011;35163;48.878;18.040;2023-03-31T04:26:59;35.20;;;19.77;;
49296;SDS011;35163;48.878;18.040;2023-03-31T04:29:28;41.22;;;21.00;;
49296;SDS011;35163;48.878;18.040;2023-03-31T04:31:59;34.13;;;19.80;;
49296;SDS011;35163;48.878;18.040;2023-03-31T04:34:26;41.63;;;20.20;;
49296;SDS011;35163;48.878;18.040;2023-03-31T04:37:01;39.60;;;21.20;;
49296;SDS011;35163;48.878;18.040;2023-03-31T04:39:29;50.85;;;21.73;;
49296;SDS011;35163;48.878;18.040;2023-03-31T04:41:57;37.22;;;21.60;;
49296;SDS011;35163;48.878;18.040;2023-03-31T04:44:24;39.05;;;21.25;;
49296;SDS011;35163;48.878;18.040;2023-03-31T04:46:52;41.15;;;21.00;;
49296;SDS011;35163;48.878;18.040;2023-03-31T04:49:19;43.03;;;19.83;;
49296;SDS011;35163;48.878;18.040;2023-03-31T04:51:46;31.65;;;19.58;;
49296;SDS011;35163;48.878;18.040;2023-03-31T04:54:13;29.58;;;18.95;;
49296;SDS011;35163;48.878;18.040;2023-03-31T04:56:40;31.08;;;20.02;;
49296;SDS011;35163;48.878;18.040;2023-03-31T04:59:06;29.60;;;19.45;;
49296;SDS011;35163;48.878;18.040;2023-03-31T05:01:33;42.40;;;20.15;;
49296;SDS011;35163;48.878;18.040;2023-03-31T05:04:03;32.95;;;20.17;;
49296;SDS011;35163;48.878;18.040;2023-03-31T05:06:30;37.97;;;21.05;;
49296;SDS011;35163;48.878;18.040;2023-03-31T05:08:57;31.23;;;19.00;;
49296;SDS011;35163;48.878;18.040;2023-03-31T05:11:26;37.50;;;20.63;;
49296;SDS011;35163;48.878;18.040;2023-03-31T05:13:54;30.48;;;19.45;;
49296;SDS011;35163;48.878;18.040;2023-03-31T05:16:20;29.80;;;19.55;;
49296;SDS011;35163;48.878;18.040;2023-03-31T05:18:47;34.90;;;20.60;;
49296;SDS011;35163;48.878;18.040;2023-03-31T05:21:16;34.15;;;20.50;;
49296;SDS011;35163;48.878;18.040;2023-03-31T05:23:44;32.72;;;19.30;;
49296;SDS011;35163;48.878;18.040;2023-03-31T05:26:11;30.08;;;20.00;;
49296;SDS011;35163;48.878;18.040;2023-03-31T05:28:39;34.00;;;19.83;;
49296;SDS011;35163;48.878;18.040;2023-03-31T05:31:07;47.17;;;21.38;;
49296;SDS011;35163;48.878;18.040;2023-03-31T05:33:34;33.33;;;19.83;;
49296;SDS011;35163;48.878;18.040;2023-03-31T05:36:06;42.47;;;20.60;;
49296;SDS011;35163;48.878;18.040;2023-03-31T05:38:35;34.42;;;20.13;;
49296;SDS011;35163;48.878;18.040;2023-03-31T05:41:04;31.83;;;20.00;;
49296;SDS011;35163;48.878;18.040;2023-03-31T05:43:34;35.50;;;19.90;;
49296;SDS011;35163;48.878;18.040;2023-03-31T05:46:04;39.90;;;21.05;;
49296;SDS011;35163;48.878;18.040;2023-03-31T05:48:35;38.80;;;20.75;;
49296;SDS011;35163;48.878;18.040;2023-03-31T05:51:03;31.10;;;19.20;;
49296;SDS011;35163;48.878;18.040;2023-03-31T05:53:30;36.00;;;20.08;;
49296;SDS011;35163;48.878;18.040;2023-03-31T05:55:57;29.10;;;18.10;;
49296;SDS011;35163;48.878;18.040;2023-03-31T05:58:25;32.38;;;19.42;;
49296;SDS011;35163;48.878;18.040;2023-03-31T06:03:35;26.90;;;17.10;;
49296;SDS011;35163;48.878;18.040;2023-03-31T06:06:04;28.90;;;17.00;;
49296;SDS011;35163;48.878;18.040;2023-03-31T06:08:31;27.38;;;17.73;;
49296;SDS011;35163;48.878;18.040;2023-03-31T06:10:58;26.85;;;16.73;;
49296;SDS011;35163;48.878;18.040;2023-03-31T06:13:24;27.58;;;17.23;;
49296;SDS011;35163;48.878;18.040;2023-03-31T06:15:52;27.52;;;16.90;;
49296;SDS011;35163;48.878;18.040;2023-03-31T06:18:22;27.08;;;17.17;;
49296;SDS011;35163;48.878;18.040;2023-03-31T06:20:50;30.42;;;19.38;;
49296;SDS011;35163;48.878;18.040;2023-03-31T06:23:17;28.00;;;16.60;;
49296;SDS011;35163;48.878;18.040;2023-03-31T06:25:44;27.40;;;17.83;;
49296;SDS011;35163;48.878;18.040;2023-03-31T06:28:17;27.27;;;16.98;;
49296;SDS011;35163;48.878;18.040;2023-03-31T06:30:45;28.40;;;16.75;;
49296;SDS011;35163;48.878;18.040;2023-03-31T06:33:11;31.52;;;16.17;;
49296;SDS011;35163;48.878;18.040;2023-03-31T06:35:39;25.13;;;15.70;;
49296;SDS011;35163;48.878;18.040;2023-03-31T06:38:07;26.80;;;16.90;;
49296;SDS011;35163;48.878;18.040;2023-03-31T06:40:33;27.27;;;16.38;;
49296;SDS011;35163;48.878;18.040;2023-03-31T06:43:00;25.50;;;16.67;;
49296;SDS011;35163;48.878;18.040;2023-03-31T06:45:27;27.75;;;17.33;;
49296;SDS011;35163;48.878;18.040;2023-03-31T06:47:54;25.38;;;17.08;;
49296;SDS011;35163;48.878;18.040;2023-03-31T06:50:20;25.80;;;16.35;;
49296;SDS011;35163;48.878;18.040;2023-03-31T06:52:47;26.88;;;16.30;;
49296;SDS011;35163;48.878;18.040;2023-03-31T06:55:17;25.73;;;14.98;;
49296;SDS011;35163;48.878;18.040;2023-03-31T06:57:44;28.25;;;15.32;;
49296;SDS011;35163;48.878;18.040;2023-03-31T07:00:11;23.70;;;15.20;;
49296;SDS011;35163;48.878;18.040;2023-03-31T07:02:38;23.23;;;16.10;;
49296;SDS011;35163;48.878;18.040;2023-03-31T07:05:05;21.98;;;14.43;;
49296;SDS011;35163;48.878;18.040;2023-03-31T07:07:43;22.10;;;14.93;;
49296;SDS011;35163;48.878;18.040;2023-03-31T07:10:11;21.50;;;14.07;;
49296;SDS011;35163;48.878;18.040;2023-03-31T07:12:44;21.23;;;14.45;;
49296;SDS011;35163;48.878;18.040;2023-03-31T07:15:11;19.88;;;12.38;;
49296;SDS011;35163;48.878;18.040;2023-03-31T07:17:37;25.77;;;15.57;;
49296;SDS011;35163;48.878;18.040;2023-03-31T07:20:09;21.85;;;14.52;;
49296;SDS011;35163;48.878;18.040;2023-03-31T07:22:43;22.27;;;13.70;;
49296;SDS011;35163;48.878;18.040;2023-03-31T07:25:15;20.42;;;13.43;;
49296;SDS011;35163;48.878;18.040;2023-03-31T07:27:42;22.20;;;14.82;;
49296;SDS011;35163;48.878;18.040;2023-03-31T07:30:16;20.80;;;13.90;;
49296;SDS011;35163;48.878;18.040;2023-03-31T07:32:45;21.95;;;14.43;;
49296;SDS011;35163;48.878;18.040;2023-03-31T07:35:13;20.75;;;14.32;;
49296;SDS011;35163;48.878;18.040;2023-03-31T07:37:43;21.25;;;13.43;;
49296;SDS011;35163;48.878;18.040;2023-03-31T07:40:13;25.55;;;16.35;;
49296;SDS011;35163;48.878;18.040;2023-03-31T07:42:42;26.17;;;15.88;;
49296;SDS011;35163;48.878;18.040;2023-03-31T07:45:13;24.45;;;16.08;;
49296;SDS011;35163;48.878;18.040;2023-03-31T07:47:41;26.48;;;16.58;;
49296;SDS011;35163;48.878;18.040;2023-03-31T07:50:10;26.63;;;18.20;;
49296;SDS011;35163;48.878;18.040;2023-03-31T07:52:37;27.40;;;17.13;;
49296;SDS011;35163;48.878;18.040;2023-03-31T07:55:04;26.35;;;17.35;;
49296;SDS011;35163;48.878;18.040;2023-03-31T07:57:32;26.67;;;18.08;;
49296;SDS011;35163;48.878;18.040;2023-03-31T08:00:03;34.55;;;20.60;;
49296;SDS011;35163;48.878;18.040;2023-03-31T08:02:34;28.33;;;18.23;;
49296;SDS011;35163;48.878;18.040;2023-03-31T08:05:01;29.48;;;17.75;;
49296;SDS011;35163;48.878;18.040;2023-03-31T08:07:28;29.63;;;19.75;;
49296;SDS011;35163;48.878;18.040;2023-03-31T08:09:56;29.98;;;18.58;;
49296;SDS011;35163;48.878;18.040;2023-03-31T08:12:23;34.42;;;19.60;;
49296;SDS011;35163;48.878;18.040;2023-03-31T08:14:53;29.33;;;18.98;;
49296;SDS011;35163;48.878;18.040;2023-03-31T08:17:19;29.02;;;18.60;;
49296;SDS011;35163;48.878;18.040;2023-03-31T08:19:46;38.50;;;18.60;;
49296;SDS011;35163;48.878;18.040;2023-03-31T08:22:13;29.58;;;18.38;;
49296;SDS011;35163;48.878;18.040;2023-03-31T08:24:39;28.58;;;18.48;;
49296;SDS011;35163;48.878;18.040;2023-03-31T08:27:06;30.70;;;19.23;;
49296;SDS011;35163;48.878;18.040;2023-03-31T08:29:37;29.23;;;18.40;;
49296;SDS011;35163;48.878;18.040;2023-03-31T08:32:04;28.48;;;18.45;;
49296;SDS011;35163;48.878;18.040;2023-03-31T08:34:32;27.60;;;18.40;;
49296;SDS011;35163;48.878;18.040;2023-03-31T08:36:59;27.83;;;17.23;;
49296;SDS011;35163;48.878;18.040;2023-03-31T08:39:26;30.73;;;17.13;;
49296;SDS011;35163;48.878;18.040;2023-03-31T08:47:36;30.55;;;19.23;;
49296;SDS011;35163;48.878;18.040;2023-03-31T08:50:14;26.33;;;18.05;;
49296;SDS011;35163;48.878;18.040;2023-03-31T08:52:48;31.15;;;17.42;;
49296;SDS011;35163;48.878;18.040;2023-03-31T08:55:24;28.63;;;17.38;;
49296;SDS011;35163;48.878;18.040;2023-03-31T08:57:59;34.03;;;18.17;;
49296;SDS011;35163;48.878;18.040;2023-03-31T09:00:30;25.42;;;17.48;;
49296;SDS011;35163;48.878;18.040;2023-03-31T09:03:15;30.40;;;17.67;;
49296;SDS011;35163;48.878;18.040;2023-03-31T09:05:55;25.10;;;16.63;;
49296;SDS011;35163;48.878;18.040;2023-03-31T09:08:38;27.85;;;17.33;;
49296;SDS011;35163;48.878;18.040;2023-03-31T09:16:50;31.27;;;18.20;;
49296;SDS011;35163;48.878;18.040;2023-03-31T09:19:40;28.40;;;16.35;;
49296;SDS011;35163;48.878;18.040;2023-03-31T09:22:15;25.95;;;14.88;;
49296;SDS011;35163;48.878;18.040;2023-03-31T09:25:00;23.75;;;14.20;;
49296;SDS011;35163;48.878;18.040;2023-03-31T09:27:30;23.17;;;14.32;;
49296;SDS011;35163;48.878;18.040;2023-03-31T09:32:30;18.83;;;10.27;;
49296;SDS011;35163;48.878;18.040;2023-03-31T09:35:00;16.63;;;8.73;;
49296;SDS011;35163;48.878;18.040;2023-03-31T09:37:38;17.83;;;10.70;;
49296;SDS011;35163;48.878;18.040;2023-03-31T09:40:04;17.17;;;8.98;;
49296;SDS011;35163;48.878;18.040;2023-03-31T09:42:36;13.90;;;7.43;;
49296;SDS011;35163;48.878;18.040;2023-03-31T09:45:12;14.20;;;8.10;;
49296;SDS011;35163;48.878;18.040;2023-03-31T09:47:41;13.07;;;7.03;;
49296;SDS011;35163;48.878;18.040;2023-03-31T09:50:12;12.55;;;6.60;;
49296;SDS011;35163;48.878;18.040;2023-03-31T09:52:42;12.07;;;6.32;;
49296;SDS011;35163;48.878;18.040;2023-03-31T09:58:11;14.07;;;5.70;;
49296;SDS011;35163;48.878;18.040;2023-03-31T10:00:39;10.90;;;5.20;;
49296;SDS011;35163;48.878;18.040;2023-03-31T10:03:10;22.33;;;12.10;;
49296;SDS011;35163;48.878;18.040;2023-03-31T10:05:49;18.90;;;9.20;;
49296;SDS011;35163;48.878;18.040;2023-03-31T10:13:23;9.68;;;5.22;;
49296;SDS011;35163;48.878;18.040;2023-03-31T10:15:53;9.70;;;5.50;;
49296;SDS011;35163;48.878;18.040;2023-03-31T10:18:32;10.80;;;5.20;;
49296;SDS011;35163;48.878;18.040;2023-03-31T10:21:02;14.50;;;5.30;;
49296;SDS011;35163;48.878;18.040;2023-03-31T10:23:33;11.18;;;5.50;;
49296;SDS011;35163;48.878;18.040;2023-03-31T10:26:01;14.23;;;5.95;;
49296;SDS011;35163;48.878;18.040;2023-03-31T10:28:31;13.50;;;6.50;;
49296;SDS011;35163;48.878;18.040;2023-03-31T10:31:00;17.45;;;8.48;;
49296;SDS011;35163;48.878;18.040;2023-03-31T10:33:29;16.27;;;7.70;;
49296;SDS011;35163;48.878;18.040;2023-03-31T10:36:07;14.02;;;7.80;;
49296;SDS011;35163;48.878;18.040;2023-03-31T10:38:44;14.57;;;7.72;;
49296;SDS011;35163;48.878;18.040;2023-03-31T10:41:16;15.50;;;8.02;;
49296;SDS011;35163;48.878;18.040;2023-03-31T10:43:47;18.35;;;9.55;;
49296;SDS011;35163;48.878;18.040;2023-03-31T10:46:19;16.83;;;8.82;;
49296;SDS011;35163;48.878;18.040;2023-03-31T10:48:46;16.17;;;9.43;;
49296;SDS011;35163;48.878;18.040;2023-03-31T10:51:14;16.77;;;8.95;;
49296;SDS011;35163;48.878;18.040;2023-03-31T10:53:43;16.83;;;8.10;;
49296;SDS011;35163;48.878;18.040;2023-03-31T10:56:13;14.82;;;9.52;;
49296;SDS011;35163;48.878;18.040;2023-03-31T11:10:57;14.65;;;8.10;;
49296;SDS011;35163;48.878;18.040;2023-03-31T11:14:04;16.27;;;8.88;;
49296;SDS011;35163;48.878;18.040;2023-03-31T11:17:02;18.33;;;9.23;;
49296;SDS011;35163;48.878;18.040;2023-03-31T11:22:29;16.30;;;9.80;;
49296;SDS011;35163;48.878;18.040;2023-03-31T11:35:44;15.00;;;9.05;;
49296;SDS011;35163;48.878;18.040;2023-03-31T11:41:13;16.00;;;9.23;;
49296;SDS011;35163;48.878;18.040;2023-03-31T11:43:49;16.85;;;10.60;;
49296;SDS011;35163;48.878;18.040;2023-03-31T11:48:53;16.65;;;10.10;;
49296;SDS011;35163;48.878;18.040;2023-03-31T11:53:57;21.58;;;12.80;;
49296;SDS011;35163;48.878;18.040;2023-03-31T11:56:29;19.17;;;11.35;;
49296;SDS011;35163;48.878;18.040;2023-03-31T11:59:01;18.45;;;10.25;;
49296;SDS011;35163;48.878;18.040;2023-03-31T12:04:32;17.13;;;10.30;;
49296;SDS011;35163;48.878;18.040;2023-03-31T12:07:07;20.52;;;11.20;;
49296;SDS011;35163;48.878;18.040;2023-03-31T12:12:19;18.67;;;11.55;;
49296;SDS011;35163;48.878;18.040;2023-03-31T12:17:31;21.02;;;13.27;;
49296;SDS011;35163;48.878;18.040;2023-03-31T12:20:02;18.00;;;11.75;;
49296;SDS011;35163;48.878;18.040;2023-03-31T12:22:36;18.38;;;12.05;;
49296;SDS011;35163;48.878;18.040;2023-03-31T12:25:12;20.23;;;12.88;;
49296;SDS011;35163;48.878;18.040;2023-03-31T12:27:44;21.00;;;11.80;;
49296;SDS011;35163;48.878;18.040;2023-03-31T12:36:06;20.55;;;12.95;;
49296;SDS011;35163;48.878;18.040;2023-03-31T12:39:06;19.42;;;12.65;;
49296;SDS011;35163;48.878;18.040;2023-03-31T12:56:18;18.90;;;11.68;;
49296;SDS011;35163;48.878;18.040;2023-03-31T12:58:46;19.42;;;11.90;;
49296;SDS011;35163;48.878;18.040;2023-03-31T13:01:22;18.13;;;11.32;;
49296;SDS011;35163;48.878;18.040;2023-03-31T13:08:56;19.13;;;12.05;;
49296;SDS011;35163;48.878;18.040;2023-03-31T13:11:52;19.95;;;11.23;;
49296;SDS011;35163;48.878;18.040;2023-03-31T13:14:23;23.63;;;11.18;;
49296;SDS011;35163;48.878;18.040;2023-03-31T13:17:10;18.27;;;10.35;;
49296;SDS011;35163;48.878;18.040;2023-03-31T13:19:40;19.70;;;11.65;;
49296;SDS011;35163;48.878;18.040;2023-03-31T13:22:25;18.90;;;10.25;;
49296;SDS011;35163;48.878;18.040;2023-03-31T13:27:48;17.45;;;9.25;;
49296;SDS011;35163;48.878;18.040;2023-03-31T13:30:50;16.27;;;10.55;;
49296;SDS011;35163;48.878;18.040;2023-03-31T13:35:37;15.88;;;9.10;;
49296;SDS011;35163;48.878;18.040;2023-03-31T13:40:49;15.73;;;10.32;;
49296;SDS011;35163;48.878;18.040;2023-03-31T13:52:01;19.35;;;9.35;;
49296;SDS011;35163;48.878;18.040;2023-03-31T14:06:39;18.23;;;10.45;;
49296;SDS011;35163;48.878;18.040;2023-03-31T14:11:53;22.25;;;11.77;;
49296;SDS011;35163;48.878;18.040;2023-03-31T14:14:23;21.48;;;10.98;;
49296;SDS011;35163;48.878;18.040;2023-03-31T14:16:51;15.43;;;9.40;;
49296;SDS011;35163;48.878;18.040;2023-03-31T14:19:35;18.50;;;10.90;;
49296;SDS011;35163;48.878;18.040;2023-03-31T14:22:47;16.75;;;10.40;;
49296;SDS011;35163;48.878;18.040;2023-03-31T14:39:05;18.25;;;10.50;;
49296;SDS011;35163;48.878;18.040;2023-03-31T14:41:36;18.58;;;10.43;;
49296;SDS011;35163;48.878;18.040;2023-03-31T14:44:03;18.38;;;10.23;;
49296;SDS011;35163;48.878;18.040;2023-03-31T14:46:35;19.40;;;10.80;;
49296;SDS011;35163;48.878;18.040;2023-03-31T14:51:54;20.73;;;12.50;;
49296;SDS011;35163;48.878;18.040;2023-03-31T14:54:25;21.42;;;11.40;;
49296;SDS011;35163;48.878;18.040;2023-03-31T14:56:53;18.73;;;12.15;;
49296;SDS011;35163;48.878;18.040;2023-03-31T14:59:24;20.95;;;11.80;;
49296;SDS011;35163;48.878;18.040;2023-03-31T15:01:55;17.02;;;10.32;;
49296;SDS011;35163;48.878;18.040;2023-03-31T15:04:26;21.83;;;11.55;;
49296;SDS011;35163;48.878;18.040;2023-03-31T15:07:07;21.63;;;13.43;;
49296;SDS011;35163;48.878;18.040;2023-03-31T15:09:34;27.10;;;16.50;;
49296;SDS011;35163;48.878;18.040;2023-03-31T15:12:03;16.88;;;11.15;;
49296;SDS011;35163;48.878;18.040;2023-03-31T15:14:37;18.45;;;10.75;;
49296;SDS011;35163;48.878;18.040;2023-03-31T15:17:20;20.48;;;11.50;;
49296;SDS011;35163;48.878;18.040;2023-03-31T15:19:53;17.75;;;11.10;;
49296;SDS011;35163;48.878;18.040;2023-03-31T15:22:22;21.85;;;11.38;;
49296;SDS011;35163;48.878;18.040;2023-03-31T15:24:51;21.00;;;11.07;;
49296;SDS011;35163;48.878;18.040;2023-03-31T15:30:02;22.13;;;11.45;;
49296;SDS011;35163;48.878;18.040;2023-03-31T15:32:34;17.33;;;10.65;;
49296;SDS011;35163;48.878;18.040;2023-03-31T15:35:03;19.05;;;12.23;;
49296;SDS011;35163;48.878;18.040;2023-03-31T15:37:46;17.77;;;11.20;;
49296;SDS011;35163;48.878;18.040;2023-03-31T15:40:23;17.95;;;11.10;;
49296;SDS011;35163;48.878;18.040;2023-03-31T15:43:03;20.58;;;12.30;;
49296;SDS011;35163;48.878;18.040;2023-03-31T15:45:52;18.33;;;11.10;;
49296;SDS011;35163;48.878;18.040;2023-03-31T15:48:32;20.08;;;11.68;;
49296;SDS011;35163;48.878;18.040;2023-03-31T15:51:05;20.33;;;12.02;;
49296;SDS011;35163;48.878;18.040;2023-03-31T15:53:43;22.67;;;12.10;;
49296;SDS011;35163;48.878;18.040;2023-03-31T15:59:02;22.58;;;10.52;;
49296;SDS011;35163;48.878;18.040;2023-03-31T16:01:34;22.05;;;12.43;;
49296;SDS011;35163;48.878;18.040;2023-03-31T16:04:11;20.92;;;11.55;;
49296;SDS011;35163;48.878;18.040;2023-03-31T16:06:49;22.42;;;13.18;;
49296;SDS011;35163;48.878;18.040;2023-03-31T16:11:57;21.20;;;12.77;;
49296;SDS011;35163;48.878;18.040;2023-03-31T16:14:37;18.15;;;12.18;;
49296;SDS011;35163;48.878;18.040;2023-03-31T16:17:12;20.13;;;12.32;;
49296;SDS011;35163;48.878;18.040;2023-03-31T16:19:53;23.98;;;14.00;;
49296;SDS011;35163;48.878;18.040;2023-03-31T16:22:36;21.08;;;13.35;;
49296;SDS011;35163;48.878;18.040;2023-03-31T16:25:14;26.00;;;13.10;;
49296;SDS011;35163;48.878;18.040;2023-03-31T16:27:46;19.65;;;11.82;;
49296;SDS011;35163;48.878;18.040;2023-03-31T16:30:17;20.92;;;13.27;;
49296;SDS011;35163;48.878;18.040;2023-03-31T16:35:46;17.00;;;11.25;;
49296;SDS011;35163;48.878;18.040;2023-03-31T16:38:16;25.10;;;11.35;;
49296;SDS011;35163;48.878;18.040;2023-03-31T16:40:47;17.20;;;11.43;;
49296;SDS011;35163;48.878;18.040;2023-03-31T16:45:54;17.23;;;10.63;;
49296;SDS011;35163;48.878;18.040;2023-03-31T16:48:24;17.00;;;10.52;;
49296;SDS011;35163;48.878;18.040;2023-03-31T16:50:56;19.30;;;9.90;;
49296;SDS011;35163;48.878;18.040;2023-03-31T16:53:25;17.17;;;9.60;;
49296;SDS011;35163;48.878;18.040;2023-03-31T16:55:54;17.38;;;8.98;;
49296;SDS011;35163;48.878;18.040;2023-03-31T16:58:24;21.42;;;9.10;;
49296;SDS011;35163;48.878;18.040;2023-03-31T17:00:53;17.35;;;8.52;;
49296;SDS011;35163;48.878;18.040;2023-03-31T17:03:20;13.57;;;8.05;;
49296;SDS011;35163;48.878;18.040;2023-03-31T17:05:48;14.60;;;7.28;;
49296;SDS011;35163;48.878;18.040;2023-03-31T17:08:23;13.38;;;7.43;;
49296;SDS011;35163;48.878;18.040;2023-03-31T17:11:14;11.60;;;6.82;;
49296;SDS011;35163;48.878;18.040;2023-03-31T17:13:40;12.48;;;7.35;;
49296;SDS011;35163;48.878;18.040;2023-03-31T17:16:08;11.70;;;6.63;;
49296;SDS011;35163;48.878;18.040;2023-03-31T17:18:47;10.32;;;5.63;;
49296;SDS011;35163;48.878;18.040;2023-03-31T17:21:15;13.18;;;5.47;;
49296;SDS011;35163;48.878;18.040;2023-03-31T17:23:44;10.65;;;5.50;;
49296;SDS011;35163;48.878;18.040;2023-03-31T17:26:13;12.98;;;5.43;;
49296;SDS011;35163;48.878;18.040;2023-03-31T17:28:41;11.65;;;5.38;;
49296;SDS011;35163;48.878;18.040;2023-03-31T17:31:14;11.98;;;5.75;;
49296;SDS011;35163;48.878;18.040;2023-03-31T17:33:43;13.18;;;6.45;;
49296;SDS011;35163;48.878;18.040;2023-03-31T17:36:10;10.68;;;6.05;;
49296;SDS011;35163;48.878;18.040;2023-03-31T17:38:37;12.95;;;5.75;;
49296;SDS011;35163;48.878;18.040;2023-03-31T17:41:06;13.57;;;6.00;;
49296;SDS011;35163;48.878;18.040;2023-03-31T17:43:34;12.27;;;5.93;;
49296;SDS011;35163;48.878;18.040;2023-03-31T17:46:04;11.35;;;6.72;;